createdAt,value
2023-01-18T00:02:02.687Z,49.50
2023-01-18T00:04:29.279Z,49.90
2023-01-18T00:06:57.260Z,49.70
2023-01-18T00:09:23.957Z,49.80
2023-01-18T00:11:50.481Z,49.70
2023-01-18T00:14:17.147Z,49.60
2023-01-18T00:16:43.737Z,49.00
2023-01-18T00:19:13.090Z,49.20
2023-01-18T00:21:40.032Z,49.80
2023-01-18T00:24:10.941Z,48.80
2023-01-18T00:26:37.975Z,49.10
2023-01-18T00:29:04.999Z,48.90
2023-01-18T00:31:32.151Z,49.50
2023-01-18T00:33:58.812Z,48.90
2023-01-18T00:36:25.434Z,50.00
2023-01-18T00:38:52.367Z,49.80
2023-01-18T00:41:19.485Z,48.90
2023-01-18T00:43:46.391Z,49.00
2023-01-18T00:46:14.780Z,49.30
2023-01-18T00:48:41.841Z,49.80
2023-01-18T00:51:09.998Z,49.00
2023-01-18T00:53:38.084Z,49.30
2023-01-18T00:56:06.857Z,49.50
2023-01-18T00:58:33.532Z,48.90
2023-01-18T01:01:00.218Z,49.30
2023-01-18T01:03:26.852Z,49.70
2023-01-18T01:06:32.030Z,50.20
2023-01-18T01:08:58.578Z,49.20
2023-01-18T01:11:25.157Z,48.80
2023-01-18T01:14:10.330Z,49.20
2023-01-18T01:16:55.481Z,49.00
2023-01-18T01:19:40.680Z,49.00
2023-01-18T01:22:25.873Z,48.70
2023-01-18T01:25:11.033Z,48.80
2023-01-18T01:27:37.778Z,49.20
2023-01-18T01:30:04.529Z,49.40
2023-01-18T01:32:31.080Z,48.80
2023-01-18T01:34:57.665Z,49.20
2023-01-18T01:37:24.239Z,48.80
2023-01-18T01:39:50.812Z,48.30
2023-01-18T01:42:17.635Z,49.30
2023-01-18T01:44:50.084Z,48.90
2023-01-18T01:47:29.240Z,49.10
2023-01-18T01:49:58.524Z,49.10
2023-01-18T01:52:28.199Z,49.30
2023-01-18T01:54:57.941Z,48.90
2023-01-18T01:57:30.426Z,50.30
2023-01-18T02:00:20.266Z,49.00
2023-01-18T02:02:57.511Z,49.80
2023-01-18T02:05:24.704Z,49.60
2023-01-18T02:07:51.439Z,49.60
2023-01-18T02:10:18.050Z,49.60
2023-01-18T02:12:46.249Z,49.00
2023-01-18T02:15:13.032Z,49.20
2023-01-18T02:17:58.685Z,50.20
2023-01-18T02:20:34.433Z,49.20
2023-01-18T02:23:24.463Z,49.20
2023-01-18T02:25:54.147Z,50.00
2023-01-18T02:28:29.919Z,49.60
2023-01-18T02:31:01.054Z,49.30
2023-01-18T02:33:31.863Z,50.00
2023-01-18T02:36:00.427Z,49.80
2023-01-18T02:38:35.680Z,50.00
2023-01-18T02:41:08.274Z,49.30
2023-01-18T02:43:54.244Z,49.80
2023-01-18T02:46:31.332Z,50.30
2023-01-18T02:48:58.582Z,49.40
2023-01-18T02:51:25.299Z,50.50
2023-01-18T02:53:52.000Z,50.00
2023-01-18T02:56:27.760Z,49.50
2023-01-18T02:58:54.300Z,50.30
2023-01-18T03:01:22.377Z,50.20
2023-01-18T03:03:50.209Z,49.60
2023-01-18T03:06:17.233Z,50.20
2023-01-18T03:08:51.343Z,50.20
2023-01-18T03:11:26.043Z,50.10
2023-01-18T03:13:58.700Z,49.50
2023-01-18T03:16:27.758Z,50.00
2023-01-18T03:19:04.876Z,49.90
2023-01-18T03:21:34.581Z,49.70
2023-01-18T03:24:03.150Z,50.20
2023-01-18T03:26:32.854Z,49.90
2023-01-18T03:29:18.609Z,49.70
2023-01-18T03:32:03.767Z,49.50
2023-01-18T03:34:32.937Z,49.90
2023-01-18T03:37:01.365Z,50.00
2023-01-18T03:39:39.346Z,49.40
2023-01-18T03:42:10.951Z,51.00
2023-01-18T03:44:40.122Z,50.00
2023-01-18T03:47:07.153Z,49.30
2023-01-18T03:49:34.429Z,49.60
2023-01-18T03:52:04.087Z,50.00
2023-01-18T03:54:35.415Z,49.90
2023-01-18T03:57:05.445Z,49.50
2023-01-18T03:59:34.228Z,49.30
2023-01-18T04:02:01.630Z,49.90
2023-01-18T04:04:28.249Z,49.90
2023-01-18T04:06:54.858Z,50.80
2023-01-18T04:09:21.495Z,50.30
2023-01-18T04:11:48.365Z,50.40
2023-01-18T04:14:15.009Z,49.80
2023-01-18T04:16:41.637Z,49.80
2023-01-18T04:19:08.675Z,50.10
2023-01-18T04:21:35.441Z,49.40
2023-01-18T04:24:02.106Z,50.90
2023-01-18T04:26:29.916Z,49.80
2023-01-18T04:28:56.484Z,48.80
2023-01-18T04:31:23.141Z,49.50
2023-01-18T04:33:51.646Z,49.70
2023-01-18T04:36:19.156Z,49.00
2023-01-18T04:38:45.952Z,48.60
2023-01-18T04:41:12.516Z,49.30
2023-01-18T04:43:39.064Z,48.90
2023-01-18T04:46:05.670Z,48.80
2023-01-18T04:48:32.269Z,49.00
2023-01-18T04:50:58.822Z,48.80
2023-01-18T04:53:25.412Z,49.20
2023-01-18T04:55:52.004Z,48.60
2023-01-18T04:58:18.633Z,48.70
2023-01-18T05:00:45.326Z,49.90
2023-01-18T05:03:12.243Z,48.90
2023-01-18T05:05:39.104Z,49.50
2023-01-18T05:08:05.739Z,49.40
2023-01-18T05:10:33.621Z,49.60
2023-01-18T05:13:00.788Z,49.10
2023-01-18T05:15:27.692Z,49.40
2023-01-18T05:17:54.326Z,49.60
2023-01-18T05:20:20.939Z,49.30
2023-01-18T05:22:47.523Z,49.60
2023-01-18T05:25:14.157Z,49.80
2023-01-18T05:27:40.742Z,49.80
2023-01-18T05:30:08.687Z,50.20
2023-01-18T05:32:35.292Z,49.50
2023-01-18T05:35:02.538Z,49.70
2023-01-18T05:37:29.132Z,49.00
2023-01-18T05:39:55.775Z,49.10
2023-01-18T05:42:22.305Z,49.40
2023-01-18T05:44:48.908Z,48.60
2023-01-18T05:47:15.512Z,48.80
2023-01-18T05:49:42.167Z,48.80
2023-01-18T05:52:08.744Z,48.80
2023-01-18T05:54:35.310Z,48.40
2023-01-18T05:57:02.228Z,48.50
2023-01-18T05:59:28.838Z,49.10
2023-01-18T06:01:55.438Z,48.70
2023-01-18T06:04:22.251Z,47.90
2023-01-18T06:06:48.944Z,48.20
2023-01-18T06:09:15.495Z,48.80
2023-01-18T06:11:42.147Z,48.00
2023-01-18T06:14:08.903Z,48.00
2023-01-18T06:16:35.620Z,48.40
2023-01-18T06:19:02.321Z,48.30
2023-01-18T06:21:28.944Z,48.10
2023-01-18T06:23:55.611Z,48.30
2023-01-18T06:26:23.903Z,48.20
2023-01-18T06:28:50.549Z,47.70
2023-01-18T06:31:17.242Z,48.20
2023-01-18T06:33:43.863Z,48.30
2023-01-18T06:36:10.478Z,47.60
2023-01-18T06:38:37.144Z,48.70
2023-01-18T06:41:03.815Z,47.90
2023-01-18T06:43:30.491Z,48.00
2023-01-18T06:45:57.306Z,47.80
2023-01-18T06:48:26.391Z,47.70
2023-01-18T06:50:55.770Z,48.10
2023-01-18T06:53:22.527Z,47.60
2023-01-18T06:55:52.878Z,48.00
2023-01-18T06:58:19.473Z,48.10
2023-01-18T07:00:46.023Z,47.60
2023-01-18T07:03:12.671Z,47.80
2023-01-18T07:05:39.310Z,48.10
2023-01-18T07:08:06.086Z,47.40
2023-01-18T07:10:32.674Z,47.50
2023-01-18T07:12:59.580Z,47.70
2023-01-18T07:15:26.451Z,47.80
2023-01-18T07:17:53.013Z,47.40
2023-01-18T07:20:19.925Z,48.10
2023-01-18T07:22:49.891Z,48.00
2023-01-18T07:25:18.867Z,47.70
2023-01-18T07:27:46.216Z,47.70
2023-01-18T07:30:13.105Z,47.90
2023-01-18T07:32:40.056Z,47.70
2023-01-18T07:35:07.310Z,47.40
2023-01-18T07:37:34.077Z,47.60
2023-01-18T07:40:00.637Z,47.70
2023-01-18T07:42:27.203Z,47.40
2023-01-18T07:44:53.859Z,47.30
2023-01-18T07:47:20.482Z,47.20
2023-01-18T07:49:47.062Z,47.20
2023-01-18T07:52:13.633Z,47.70
2023-01-18T07:54:40.245Z,47.10
2023-01-18T07:57:06.875Z,47.80
2023-01-18T07:59:33.823Z,47.30
2023-01-18T08:02:00.439Z,47.40
2023-01-18T08:04:27.060Z,47.70
2023-01-18T08:06:56.916Z,47.30
2023-01-18T08:09:24.262Z,47.60
2023-01-18T08:11:50.833Z,47.50
2023-01-18T08:14:17.408Z,47.60
2023-01-18T08:16:44.999Z,47.40
2023-01-18T08:19:11.712Z,47.30
2023-01-18T08:21:38.466Z,47.40
2023-01-18T08:24:05.333Z,47.10
2023-01-18T08:26:31.911Z,47.10
2023-01-18T08:28:58.458Z,47.40
2023-01-18T08:31:25.065Z,47.20
2023-01-18T08:33:52.880Z,47.30
2023-01-18T08:36:24.485Z,47.30
2023-01-18T08:38:55.327Z,47.40
2023-01-18T08:41:28.078Z,47.20
2023-01-18T08:43:55.418Z,47.30
2023-01-18T08:46:22.487Z,47.00
2023-01-18T08:48:49.941Z,47.00
2023-01-18T08:51:18.714Z,47.60
2023-01-18T08:53:46.472Z,47.20
2023-01-18T08:56:13.588Z,47.50
2023-01-18T08:58:40.176Z,47.40
2023-01-18T09:01:08.075Z,47.50
2023-01-18T09:03:35.333Z,47.60
2023-01-18T09:06:02.893Z,47.70
2023-01-18T09:08:29.619Z,47.80
2023-01-18T09:11:00.375Z,47.60
2023-01-18T09:13:26.940Z,48.00
2023-01-18T09:16:02.957Z,48.10
2023-01-18T09:18:30.205Z,48.40
2023-01-18T09:20:57.909Z,48.80
2023-01-18T09:23:24.927Z,48.60
2023-01-18T09:26:05.817Z,48.70
2023-01-18T09:28:32.853Z,48.70
2023-01-18T09:31:00.408Z,48.60
2023-01-18T09:33:36.873Z,48.10
2023-01-18T09:36:05.653Z,48.20
2023-01-18T09:38:32.258Z,48.10
2023-01-18T09:40:58.949Z,47.90
2023-01-18T09:43:31.213Z,48.70
2023-01-18T09:45:59.961Z,48.50
2023-01-18T09:48:29.551Z,49.00
2023-01-18T09:50:58.302Z,49.20
2023-01-18T09:53:24.947Z,49.00
2023-01-18T09:55:56.908Z,49.10
2023-01-18T09:58:35.466Z,49.40
2023-01-18T10:01:08.063Z,49.40
2023-01-18T10:03:47.705Z,49.60
2023-01-18T10:06:36.994Z,49.80
2023-01-18T10:09:06.869Z,49.40
2023-01-18T10:11:47.423Z,49.70
2023-01-18T10:14:23.470Z,49.70
2023-01-18T10:16:55.585Z,49.20
2023-01-18T10:19:24.955Z,49.90
2023-01-18T10:22:27.154Z,49.60
2023-01-18T10:24:59.816Z,49.50
2023-01-18T10:27:51.084Z,49.20
2023-01-18T10:30:31.871Z,49.30
2023-01-18T10:33:00.219Z,49.80
2023-01-18T10:35:34.762Z,50.00
2023-01-18T10:38:04.815Z,49.50
2023-01-18T10:40:32.160Z,49.90
2023-01-18T10:43:04.209Z,49.80
2023-01-18T10:45:32.545Z,50.40
2023-01-18T10:48:19.110Z,49.20
2023-01-18T10:50:51.494Z,49.80
2023-01-18T10:53:36.496Z,50.00
2023-01-18T10:56:05.063Z,49.50
2023-01-18T10:58:31.634Z,49.90
2023-01-18T11:00:59.367Z,50.10
2023-01-18T11:03:26.651Z,49.50
2023-01-18T11:05:53.517Z,50.30
2023-01-18T11:08:21.872Z,49.70
2023-01-18T11:11:17.757Z,49.40
2023-01-18T11:13:45.721Z,49.90
2023-01-18T11:16:14.457Z,49.50
2023-01-18T11:19:00.975Z,49.60
2023-01-18T11:21:31.571Z,50.20
2023-01-18T11:23:58.295Z,50.10
2023-01-18T11:26:25.304Z,49.80
2023-01-18T11:28:57.540Z,50.00
2023-01-18T11:31:25.666Z,50.00
2023-01-18T11:34:03.113Z,49.50
2023-01-18T11:36:41.415Z,50.20
2023-01-18T11:39:26.575Z,50.00
2023-01-18T11:42:10.245Z,49.70
2023-01-18T11:44:38.389Z,50.20
2023-01-18T11:47:06.069Z,52.30
2023-01-18T11:49:39.040Z,52.70
2023-01-18T11:52:17.420Z,56.20
2023-01-18T11:54:53.304Z,54.60
2023-01-18T11:57:20.050Z,54.80
2023-01-18T11:59:47.995Z,54.00
2023-01-18T12:02:20.612Z,54.30
2023-01-18T12:04:58.454Z,55.10
2023-01-18T12:07:25.043Z,54.20
2023-01-18T12:09:52.499Z,55.00
2023-01-18T12:12:33.254Z,55.40
2023-01-18T12:15:26.260Z,54.90
2023-01-18T12:18:04.367Z,55.30
2023-01-18T12:20:53.563Z,55.60
2023-01-18T12:23:32.665Z,55.90
2023-01-18T12:26:18.157Z,55.60
2023-01-18T12:29:00.008Z,56.00
2023-01-18T12:31:45.365Z,55.60
2023-01-18T12:34:22.453Z,55.80
2023-01-18T12:37:07.623Z,56.10
2023-01-18T12:39:54.071Z,56.00
2023-01-18T12:42:27.122Z,55.80
2023-01-18T12:45:12.432Z,55.80
2023-01-18T12:47:40.587Z,56.80
2023-01-18T12:50:12.693Z,56.40
2023-01-18T12:52:43.788Z,55.60
2023-01-18T12:55:16.411Z,56.20
2023-01-18T12:57:45.700Z,56.30
2023-01-18T13:00:16.266Z,56.00
2023-01-18T13:02:48.033Z,56.60
2023-01-18T13:05:23.773Z,56.10
2023-01-18T13:08:10.600Z,56.20
2023-01-18T13:10:37.644Z,56.50
2023-01-18T13:13:05.907Z,55.90
2023-01-18T13:15:35.509Z,56.30
2023-01-18T13:18:28.521Z,57.00
2023-01-18T13:21:13.792Z,56.40
2023-01-18T13:23:49.451Z,56.30
2023-01-18T13:26:22.256Z,56.50
2023-01-18T13:29:04.549Z,56.90
2023-01-18T13:31:31.429Z,56.90
2023-01-18T13:33:58.351Z,57.00
2023-01-18T13:36:24.978Z,56.90
2023-01-18T13:38:56.721Z,56.60
2023-01-18T13:41:24.713Z,56.70
2023-01-18T13:43:51.353Z,56.80
2023-01-18T13:46:18.162Z,56.70
2023-01-18T13:48:48.008Z,57.10
2023-01-18T13:51:33.386Z,57.10
2023-01-18T13:54:00.048Z,56.90
2023-01-18T13:56:27.918Z,57.80
2023-01-18T13:58:56.183Z,57.60
2023-01-18T14:01:24.063Z,57.60
2023-01-18T14:03:51.255Z,57.30
2023-01-18T14:06:38.756Z,57.50
2023-01-18T14:09:09.902Z,56.90
2023-01-18T14:11:42.025Z,57.20
2023-01-18T14:14:11.706Z,57.50
2023-01-18T14:16:40.973Z,57.90
2023-01-18T14:19:18.619Z,57.30
2023-01-18T14:22:04.054Z,57.30
2023-01-18T14:24:33.665Z,57.20
2023-01-18T14:27:00.709Z,57.40
2023-01-18T14:29:34.754Z,57.20
2023-01-18T14:32:01.882Z,57.30
2023-01-18T14:34:28.429Z,57.20
2023-01-18T14:36:55.210Z,57.20
2023-01-18T14:39:22.696Z,56.90
2023-01-18T14:41:51.570Z,56.70
2023-01-18T14:44:18.239Z,57.60
2023-01-18T14:46:50.023Z,58.00
2023-01-18T14:49:19.929Z,57.20
2023-01-18T14:51:48.557Z,57.50
2023-01-18T14:54:17.124Z,57.30
2023-01-18T14:56:44.267Z,57.30
2023-01-18T14:59:20.266Z,57.00
2023-01-18T15:01:53.254Z,57.20
2023-01-18T15:04:21.341Z,56.80
2023-01-18T15:06:56.750Z,57.10
2023-01-18T15:09:24.276Z,57.00
2023-01-18T15:11:53.444Z,56.90
2023-01-18T15:14:27.811Z,57.00
2023-01-18T15:16:56.647Z,56.80
2023-01-18T15:19:32.203Z,56.90
2023-01-18T15:22:00.546Z,57.10
2023-01-18T15:24:29.153Z,57.30
2023-01-18T15:26:56.987Z,56.80
2023-01-18T15:29:26.206Z,56.90
2023-01-18T15:31:55.241Z,56.60
2023-01-18T15:34:27.336Z,56.50
2023-01-18T15:36:54.882Z,56.40
2023-01-18T15:39:21.668Z,56.30
2023-01-18T15:41:49.666Z,56.10
2023-01-18T15:44:38.471Z,56.40
2023-01-18T15:47:15.130Z,56.40
2023-01-18T15:49:47.563Z,56.20
2023-01-18T15:52:15.072Z,56.10
2023-01-18T15:54:41.999Z,56.00
2023-01-18T15:57:13.594Z,56.10
2023-01-18T15:59:41.667Z,56.00
2023-01-18T16:02:08.480Z,56.00
2023-01-18T16:04:35.380Z,56.20
2023-01-18T16:07:20.822Z,55.80
2023-01-18T16:09:47.362Z,55.60
2023-01-18T16:12:31.860Z,55.50
2023-01-18T16:14:58.436Z,55.70
2023-01-18T16:17:26.694Z,55.20
2023-01-18T16:19:57.676Z,55.30
2023-01-18T16:22:28.190Z,55.60
2023-01-18T16:24:57.053Z,55.10
2023-01-18T16:27:24.997Z,55.20
2023-01-18T16:29:54.037Z,55.60
2023-01-18T16:32:30.101Z,55.20
2023-01-18T16:34:58.802Z,55.20
2023-01-18T16:37:25.481Z,55.10
2023-01-18T16:39:54.373Z,55.50
2023-01-18T16:42:36.966Z,55.00
2023-01-18T16:45:04.727Z,55.00
2023-01-18T16:47:31.328Z,55.00
2023-01-18T16:49:59.320Z,54.90
2023-01-18T16:52:26.297Z,54.70
2023-01-18T16:54:52.929Z,54.80
2023-01-18T16:57:21.058Z,54.60
2023-01-18T16:59:47.897Z,54.80
2023-01-18T17:02:14.818Z,54.70
2023-01-18T17:04:41.780Z,54.60
2023-01-18T17:07:11.225Z,54.60
2023-01-18T17:09:47.988Z,54.30
2023-01-18T17:12:15.198Z,54.40
2023-01-18T17:14:41.818Z,55.10
2023-01-18T17:17:08.885Z,54.50
2023-01-18T17:19:37.620Z,54.70
2023-01-18T17:22:04.385Z,54.70
2023-01-18T17:24:30.996Z,54.60
2023-01-18T17:26:57.576Z,54.70
2023-01-18T17:29:24.135Z,55.00
2023-01-18T17:31:52.861Z,54.60
2023-01-18T17:34:28.126Z,54.90
2023-01-18T17:36:55.918Z,54.60
2023-01-18T17:39:23.018Z,54.80
2023-01-18T17:41:49.759Z,54.70
2023-01-18T17:44:17.294Z,54.60
2023-01-18T17:46:43.960Z,54.60
2023-01-18T17:49:10.707Z,54.80
2023-01-18T17:51:38.276Z,54.70
2023-01-18T17:54:10.256Z,54.70
2023-01-18T17:56:39.674Z,54.60
2023-01-18T17:59:09.699Z,54.50
2023-01-18T18:01:36.432Z,55.20
2023-01-18T18:04:03.075Z,54.80
2023-01-18T18:06:36.296Z,54.80
2023-01-18T18:09:03.922Z,54.80
2023-01-18T18:11:30.510Z,54.60
2023-01-18T18:13:58.917Z,54.50
2023-01-18T18:16:25.822Z,54.60
2023-01-18T18:18:53.469Z,54.40
2023-01-18T18:21:22.958Z,54.50
2023-01-18T18:23:49.597Z,55.50
2023-01-18T18:26:16.217Z,55.60
2023-01-18T18:28:42.916Z,55.30
2023-01-18T18:31:13.659Z,55.70
2023-01-18T18:33:40.556Z,55.20
2023-01-18T18:36:07.437Z,54.80
2023-01-18T18:38:34.020Z,54.60
2023-01-18T18:41:04.565Z,54.50
2023-01-18T18:43:31.558Z,54.30
2023-01-18T18:45:58.215Z,54.20
2023-01-18T18:48:25.940Z,54.20
2023-01-18T18:50:53.003Z,54.20
2023-01-18T18:53:23.808Z,54.20
2023-01-18T18:55:59.444Z,54.20
2023-01-18T18:58:26.516Z,55.20
2023-01-18T19:00:53.250Z,55.20
2023-01-18T19:24:26.226Z,55.70
2023-01-18T19:26:52.823Z,55.80
2023-01-18T19:29:19.470Z,55.90
2023-01-18T19:31:46.682Z,55.70
2023-01-18T19:34:14.865Z,55.80
2023-01-18T19:36:41.794Z,55.70
2023-01-18T19:39:17.873Z,56.00
2023-01-18T19:41:49.786Z,54.60
2023-01-18T19:44:16.868Z,54.80
2023-01-18T19:46:43.603Z,54.60
2023-01-18T19:49:10.199Z,54.80
2023-01-18T19:51:41.001Z,54.90
2023-01-18T19:54:09.916Z,54.60
2023-01-18T19:56:36.484Z,55.00
2023-01-18T19:59:04.822Z,54.90
2023-01-18T20:01:36.765Z,54.20
2023-01-18T20:04:07.331Z,54.50
2023-01-18T20:06:34.184Z,54.60
2023-01-18T20:09:00.787Z,54.90
2023-01-18T20:11:27.521Z,54.40
2023-01-18T20:13:54.276Z,54.50
2023-01-18T20:16:20.893Z,54.30
2023-01-18T20:18:48.745Z,54.40
2023-01-18T20:21:17.223Z,54.40
2023-01-18T20:23:44.299Z,54.30
2023-01-18T20:26:11.704Z,54.60
2023-01-18T20:28:38.839Z,54.40
2023-01-18T20:31:05.964Z,54.40
2023-01-18T20:33:33.449Z,54.10
2023-01-18T20:36:01.644Z,54.00
2023-01-18T20:38:28.765Z,54.20
2023-01-18T20:40:55.344Z,54.20
2023-01-18T20:43:23.540Z,54.30
2023-01-18T20:45:58.862Z,54.50
2023-01-18T20:48:25.446Z,54.20
2023-01-18T20:50:52.012Z,54.20
2023-01-18T20:53:18.578Z,54.00
2023-01-18T20:55:45.435Z,54.40
2023-01-18T20:58:12.020Z,54.00
2023-01-18T21:00:38.672Z,54.50
2023-01-18T21:03:05.484Z,54.00
2023-01-18T21:05:32.103Z,53.80
2023-01-18T21:07:59.023Z,54.10
2023-01-18T21:10:38.395Z,53.80
2023-01-18T21:13:06.133Z,53.90
2023-01-18T21:15:32.800Z,53.60
2023-01-18T21:18:01.585Z,54.00
2023-01-18T21:20:30.240Z,54.30
2023-01-18T21:22:57.745Z,53.90
2023-01-18T21:25:24.915Z,54.40
2023-01-18T21:27:51.786Z,53.60
2023-01-18T21:30:18.627Z,53.70
2023-01-18T21:32:45.504Z,54.00
2023-01-18T21:35:12.178Z,53.50
2023-01-18T21:37:39.057Z,53.40
2023-01-18T21:40:06.054Z,53.40
2023-01-18T21:42:51.560Z,53.00
2023-01-18T21:45:36.890Z,53.00
2023-01-18T21:48:07.684Z,54.10
2023-01-18T21:50:53.049Z,53.20
2023-01-18T21:53:38.145Z,53.20
2023-01-18T21:56:04.897Z,53.20
2023-01-18T21:58:50.225Z,53.40
2023-01-18T22:01:18.150Z,53.60
2023-01-18T22:04:03.627Z,52.90
2023-01-18T22:06:30.288Z,52.70
2023-01-18T22:08:56.961Z,53.00
2023-01-18T22:11:23.585Z,52.60
2023-01-18T22:13:50.235Z,52.80
2023-01-18T22:16:16.840Z,52.80
2023-01-18T22:18:43.585Z,52.40
2023-01-18T22:21:10.138Z,52.50
2023-01-18T22:23:36.694Z,52.40
2023-01-18T22:26:03.347Z,52.20
2023-01-18T22:28:29.984Z,52.40
2023-01-18T22:30:59.050Z,52.20
2023-01-18T22:33:26.606Z,52.10
2023-01-18T22:36:00.640Z,52.20
2023-01-18T22:38:27.507Z,52.00
2023-01-18T22:41:06.136Z,51.90
2023-01-18T22:43:33.386Z,52.00
2023-01-18T22:46:00.480Z,52.00
2023-01-18T22:48:27.633Z,52.00
2023-01-18T22:50:54.704Z,51.90
2023-01-18T22:53:21.860Z,51.90
2023-01-18T22:55:49.369Z,52.20
2023-01-18T22:58:16.599Z,52.10
2023-01-18T23:00:43.947Z,51.80
2023-01-18T23:03:10.690Z,52.50
2023-01-18T23:05:37.320Z,52.00
2023-01-18T23:08:04.881Z,52.00
2023-01-18T23:10:31.715Z,52.20
2023-01-18T23:12:58.709Z,51.80
2023-01-18T23:15:43.890Z,51.50
2023-01-18T23:18:10.750Z,52.10
2023-01-18T23:20:37.363Z,51.60
2023-01-18T23:23:05.092Z,51.70
2023-01-18T23:25:33.592Z,51.50
2023-01-18T23:28:03.278Z,52.10
2023-01-18T23:30:32.753Z,51.40
2023-01-18T23:32:59.348Z,52.50
2023-01-18T23:35:25.962Z,51.30
2023-01-18T23:37:52.507Z,51.40
2023-01-18T23:40:37.991Z,51.20
2023-01-18T23:43:23.429Z,51.20
2023-01-18T23:46:08.490Z,51.40
2023-01-18T23:48:53.623Z,51.20
2023-01-18T23:51:38.683Z,51.40
2023-01-18T23:54:17.789Z,52.20
2023-01-18T23:56:45.904Z,51.40
2023-01-18T23:59:13.783Z,51.90
